PHKO METAR and TAF weather

Enter ICAO airport designator
Station Type Date Time Source
PHKO METAR 2021/03/02 12:53 UTC NOAA

PHKO 021253Z AUTO 08006KT 10SM CLR 23/17 A3006 RMK AO2 SLP177 T02280167 TSNO


Station Type Date Time Source
PHKO Decoded METAR 2021/03/02 12:53 UTC NOAA

KONA INTERNATIONAL AIRPORT, HI, United States (PHKO) 19-44N 156-03W 27M
Mar 02, 2021 - 07:53 AM EST / 2021.03.02 1253 UTC
Wind: from the E (080 degrees) at 7 MPH (6 KT):0
Visibility: 10 mile(s):0
Sky conditions: clear
Temperature: 73.0 F (22.8 C)
Dew Point: 62.1 F (16.7 C)
Relative Humidity: 68%
Pressure (altimeter): 30.06 in. Hg (1017 hPa)
ob: PHKO 021253Z AUTO 08006KT 10SM CLR 23/17 A3006 RMK AO2 SLP177 T02280167 TSNO
cycle: 13

Station Type Date Time Source
PHKO TAF 2021/03/02 12:24 UTC NOAA

TAF PHKO 021122Z 0212/0312 05007KT P6SM FEW030
FM022000 21011KT P6SM FEW035 SCT060
FM030500 15007KT P6SM SCT030 BKN060

Example: see airport list